Latest Weather Observations for Hobart Airport

IDT60801

Issued at 10:02 pm EDT Sunday 26 March 2017 (issued every 30 minutes, with the page automatically refreshed every 10 minutes)

About weather observations | Map of weather stations | Latest weather observations for TAS | Other Formats
Station Details ID: 094008 Name: HOBART AIRPORT Lat: -42.83 Lon: 147.50 Height: 4.0 m
Data from the previous 72 hours. | See also: Recent months at Hobart Airport
Date/Time
EDT
Temp
°C
App
Temp
°C
Dew
Point
°C
Rel
Hum
%
Delta-T
°C
Wind Press
QNH
hPa
Press
MSL
hPa
Rain since
9am
mm
Dir  Spd
km/h
Gust
km/h
Spd
kts
Gust
kts
26/09:30pm 17.5 16.2 13.6 78 2.2 NNE 13 19 7 10 1013.5 1013.5 0.0
26/09:00pm 17.6 15.8 13.3 76 2.4 NNE 15 20 8 11 1013.6 1013.6 0.0
26/08:30pm 16.9 16.2 13.3 79 2.0 ENE 9 13 5 7 1013.6 1013.6 0.0
26/08:00pm 16.8 16.5 13.4 80 1.9 E 7 9 4 5 1013.6 1013.6 0.0
26/07:30pm 18.4 19.3 14.0 75 2.5 ENE 2 7 1 4 1013.6 1013.6 0.0
26/07:00pm 19.5 18.9 13.4 68 3.5 E 9 15 5 8 1013.4 1013.4 0.0
26/06:30pm 20.2 18.8 13.4 65 3.9 SE 13 17 7 9 1013.3 1013.3 0.0
26/06:00pm 20.9 19.3 14.0 64 4.0 SE 15 20 8 11 1013.3 1013.3 0.0
26/05:30pm 20.8 18.2 13.7 64 4.1 S 20 26 11 14 1013.5 1013.5 0.0
26/05:00pm 20.5 18.1 14.3 67 3.6 S 20 28 11 15 1013.5 1013.5 0.0
26/04:30pm 20.3 17.8 14.1 67 3.6 SSE 20 26 11 14 1013.4 1013.4 0.0
26/04:00pm 20.4 17.8 13.8 66 3.8 SSE 20 28 11 15 1013.7 1013.7 0.0
26/03:30pm 21.0 18.4 13.1 60 4.5 SSE 19 24 10 13 1013.9 1013.9 0.0
26/03:00pm 21.7 19.5 13.2 58 4.9 SSE 17 20 9 11 1014.1 1014.1 0.0
26/02:30pm 21.4 19.2 13.4 60 4.6 SE 17 22 9 12 1014.4 1014.4 0.0
26/02:00pm 20.6 18.1 12.2 58 4.7 SSE 17 19 9 10 1014.7 1014.7 0.0
26/01:30pm 21.3 18.7 12.0 55 5.2 SSE 17 20 9 11 1014.9 1014.9 0.0
26/01:00pm 21.0 18.9 12.3 57 4.9 SSE 15 17 8 9 1015.5 1015.5 0.0
26/12:30pm 20.4 18.4 12.6 61 4.4 SSE 15 19 8 10 1015.7 1015.7 0.0
26/12:00pm 20.6 20.0 13.4 63 4.1 ESE 9 15 5 8 1015.8 1015.8 0.0
26/11:30am 19.1 18.9 12.9 67 3.5 WSW 6 9 3 5 1016.1 1016.1 0.0
26/11:00am 17.4 17.0 13.1 76 2.4 NNW 7 9 4 5 1016.2 1016.2 0.0
26/10:30am 16.1 17.1 13.2 83 1.6 CALM 0 0 0 0 1016.3 1016.3 0.0
26/10:00am 15.3 14.9 12.9 85 1.3 NNE 7 7 4 4 1016.1 1016.1 0.0
26/09:30am 14.5 13.6 12.5 88 1.1 NW 9 11 5 6 1016.0 1016.0 0.0
26/09:00am 14.2 13.3 12.5 89 0.9 NW 9 13 5 7 1015.7 1015.7 0.0
26/08:30am 13.1 11.6 12.0 93 0.6 NW 11 13 6 7 1015.5 1015.5 0.0
26/08:00am 12.3 11.0 11.4 94 0.5 NW 9 13 5 7 1015.1 1015.1 0.0
26/07:30am 11.6 9.8 10.8 95 0.4 NW 11 13 6 7 1014.7 1014.7 0.0
26/07:00am 11.9 10.6 11.1 95 0.4 NW 9 13 5 7 1014.4 1014.4 0.0
26/06:30am 11.6 10.7 10.6 94 0.5 WNW 6 9 3 5 1014.0 1014.0 0.0
26/06:00am 10.3 9.1 9.5 95 0.4 WNW 6 7 3 4 1014.0 1014.0 0.0
26/05:30am 11.3 9.3 10.3 94 0.5 W 11 11 6 6 1014.0 1014.0 0.0
26/05:00am 11.6 10.2 11.0 96 0.3 NW 9 11 5 6 1014.0 1014.0 0.0
26/04:30am 12.2 11.3 11.2 94 0.5 WNW 7 9 4 5 1013.8 1013.8 0.0
26/04:00am 12.5 11.7 11.6 94 0.5 NNW 7 11 4 6 1014.0 1014.0 0.0
26/03:30am 12.4 10.8 11.5 94 0.5 WNW 11 13 6 7 1014.1 1014.1 0.0
26/03:00am 12.1 11.2 11.3 95 0.4 NNW 7 9 4 5 1014.0 1014.0 0.0
26/02:30am 13.0 12.3 11.9 93 0.6 WNW 7 9 4 5 1014.1 1014.1 0.0
26/02:00am 13.7 11.9 12.2 91 0.8 NW 13 15 7 8 1014.1 1014.1 0.0
26/01:30am 13.9 12.2 12.6 92 0.7 NW 13 17 7 9 1014.1 1014.1 0.0
26/01:00am 13.6 14.3 12.1 91 0.8 CALM 0 4 0 2 1014.0 1014.0 0.0
26/12:30am 14.0 13.6 12.3 89 0.9 WNW 6 11 3 6 1013.9 1013.9 0.0
26/12:00am 14.7 13.2 13.1 90 0.9 NW 13 15 7 8 1014.0 1014.0 0.0
 
Date/Time
EDT
Temp
°C
App
Temp
°C
Dew
Point
°C
Rel
Hum
%
Delta-T
°C
Wind Press
QNH
hPa
Press
MSL
hPa
Rain since
9am
mm
Dir  Spd
km/h
Gust
km/h
Spd
kts
Gust
kts
25/11:30pm 14.7 13.9 12.9 89 1.0 NW 9 11 5 6 1014.0 1014.0 0.0
25/11:00pm 15.4 16.3 12.9 85 1.4 CALM 0 6 0 3 1013.9 1013.9 0.0
25/10:30pm 16.0 15.3 13.3 84 1.5 NW 9 11 5 6 1013.8 1013.8 0.0
25/10:00pm 16.6 15.9 13.2 80 1.9 NW 9 13 5 7 1013.7 1013.7 0.0
25/09:30pm 17.0 16.3 13.1 78 2.2 NNW 9 13 5 7 1013.4 1013.4 0.0
25/09:00pm 17.7 16.9 12.9 73 2.7 NNW 9 11 5 6 1013.2 1013.2 0.0
25/08:30pm 18.2 17.1 13.0 71 2.9 NNW 11 15 6 8 1012.9 1012.9 0.0
25/08:00pm 18.4 17.7 13.3 72 2.9 NNW 9 11 5 6 1012.7 1012.7 0.0
25/07:30pm 18.7 17.7 13.4 71 3.0 N 11 15 6 8 1012.6 1012.6 0.0
25/07:00pm 19.1 19.4 13.3 69 3.3 N 4 7 2 4 1012.3 1012.3 0.0
25/06:30pm 19.9 20.4 12.8 63 4.0 SSE 2 7 1 4 1012.1 1012.1 0.0
25/06:00pm 20.2 19.0 11.7 58 4.7 NW 9 11 5 6 1012.0 1012.0 0.0
25/05:30pm 20.5 19.7 11.7 57 4.9 ESE 7 11 4 6 1011.9 1011.9 0.0
25/05:00pm 20.3 18.6 11.2 56 5.0 SE 11 13 6 7 1011.8 1011.8 0.0
25/04:30pm 20.5 19.3 11.7 57 4.9 SSE 9 15 5 8 1012.0 1012.0 0.0
25/04:00pm 20.1 18.5 11.4 57 4.8 SE 11 13 6 7 1012.2 1012.2 0.0
25/03:30pm 19.8 18.3 10.6 55 5.0 ESE 9 13 5 7 1012.4 1012.4 0.0
25/03:00pm 19.8 18.8 10.4 54 5.1 NE 6 11 3 6 1012.6 1012.6 0.0
25/02:30pm 19.2 18.0 10.3 56 4.8 NNE 7 11 4 6 1012.8 1012.8 0.0
25/02:00pm 19.1 17.8 10.1 56 4.8 NNE 7 15 4 8 1013.1 1013.1 0.0
25/01:30pm 18.8 17.8 10.4 58 4.5 N 6 7 3 4 1013.5 1013.5 0.0
25/01:00pm 17.5 16.1 9.7 60 4.1 NNW 7 11 4 6 1013.9 1013.9 0.0
25/12:30pm 17.0 15.2 9.5 61 3.9 NW 9 11 5 6 1014.4 1014.4 0.0
25/12:00pm 16.5 14.3 9.2 62 3.8 NW 11 15 6 8 1014.9 1014.9 0.0
25/11:30am 15.8 13.2 9.2 65 3.4 NW 13 17 7 9 1015.3 1015.3 0.0
25/11:00am 15.3 13.5 9.3 67 3.1 NW 9 13 5 7 1015.3 1015.3 0.0
25/10:30am 14.8 12.5 9.1 68 2.9 NW 11 15 6 8 1015.6 1015.6 0.0
25/10:00am 14.4 11.8 9.5 72 2.5 NNW 13 17 7 9 1015.6 1015.6 0.0
25/09:30am 14.4 11.8 9.3 71 2.6 NW 13 17 7 9 1015.4 1015.4 0.0
25/09:00am 14.3 12.3 8.8 69 2.8 NNW 9 15 5 8 1015.4 1015.4 0.0
25/08:30am 13.8 10.7 8.8 72 2.5 NW 15 17 8 9 1015.4 1015.4 0.0
25/08:00am 14.2 12.1 8.2 67 3.0 NNW 9 13 5 7 1015.5 1015.5 0.0
25/07:30am 14.0 11.5 8.2 68 2.9 NNW 11 15 6 8 1015.7 1015.7 0.0
25/07:00am 13.7 11.8 9.0 73 2.4 NW 9 13 5 7 1015.8 1015.8 0.0
25/06:30am 13.2 12.5 8.6 73 2.3 NNW 2 7 1 4 1015.8 1015.8 0.0
25/06:00am 13.2 11.5 8.4 72 2.4 N 7 9 4 5 1015.7 1015.7 0.0
25/05:30am 13.4 11.2 7.9 69 2.7 NNW 9 13 5 7 1016.1 1016.1 0.0
25/05:00am 13.4 11.2 7.9 69 2.7 NNW 9 15 5 8 1016.3 1016.3 0.0
25/04:30am 13.4 10.7 7.2 66 3.0 NW 11 17 6 9 1016.7 1016.7 0.0
25/04:00am 13.8 10.7 7.2 64 3.2 N 13 20 7 11 1017.0 1017.0 0.0
25/03:30am 14.1 10.2 6.9 62 3.5 NNE 17 24 9 13 1017.2 1017.2 0.0
25/03:00am 14.3 10.4 6.9 61 3.6 NNE 17 26 9 14 1017.8 1017.8 0.0
25/02:30am 14.2 10.3 7.0 62 3.5 N 17 26 9 14 1018.4 1018.4 0.0
25/02:00am 14.0 10.5 7.2 63 3.3 NNE 15 20 8 11 1018.4 1018.4 0.0
25/01:30am 13.8 9.9 7.2 64 3.2 NNE 17 22 9 12 1018.6 1018.6 0.0
25/01:00am 13.8 9.9 7.2 64 3.2 NNE 17 24 9 13 1019.1 1019.1 0.0
25/12:30am 13.6 11.0 7.9 68 2.8 NNE 11 20 6 11 1019.4 1019.4 0.0
25/12:00am 13.5 12.3 8.0 69 2.7 N 4 9 2 5 1019.8 1019.8 0.0
 
Date/Time
EDT
Temp
°C
App
Temp
°C
Dew
Point
°C
Rel
Hum
%
Delta-T
°C
Wind Press
QNH
hPa
Press
MSL
hPa
Rain since
9am
mm
Dir  Spd
km/h
Gust
km/h
Spd
kts
Gust
kts
24/11:30pm 13.5 10.3 8.5 72 2.5 NNE 15 22 8 12 1020.2 1020.2 0.0
24/11:00pm 13.9 11.0 8.1 68 2.9 NNE 13 20 7 11 1020.3 1020.3 0.0
24/10:30pm 14.1 10.0 7.8 66 3.1 NNE 19 28 10 15 1020.6 1020.6 0.0
24/10:00pm 13.8 11.0 8.4 70 2.7 NNE 13 19 7 10 1020.7 1020.7 0.0
24/09:30pm 14.1 10.5 8.5 69 2.8 NNE 17 26 9 14 1020.7 1020.7 0.0
24/09:00pm 14.3 11.7 9.2 71 2.6 NNE 13 19 7 10 1020.8 1020.8 0.0
24/08:30pm 14.6 11.9 8.9 68 2.9 NE 13 17 7 9 1020.8 1020.8 0.0
24/08:00pm 14.7 11.6 9.0 68 2.9 ENE 15 20 8 11 1020.6 1020.6 0.0
24/07:30pm 15.0 11.5 8.9 67 3.1 NNE 17 20 9 11 1021.0 1021.0 0.0
24/07:00pm 15.4 13.1 8.9 65 3.3 NNE 11 17 6 9 1021.1 1021.1 0.0
24/06:30pm 15.7 13.6 9.7 67 3.1 E 11 17 6 9 1021.0 1021.0 0.0
24/06:00pm 16.0 13.6 9.9 67 3.2 E 13 20 7 11 1020.7 1020.7 0.0
24/05:30pm 16.1 13.5 9.5 65 3.4 ESE 13 19 7 10 1020.9 1020.9 0.0
24/05:00pm 16.5 13.6 9.6 63 3.6 ESE 15 20 8 11 1020.9 1020.9 0.0
24/04:30pm 17.3 13.7 9.7 61 4.0 ESE 19 26 10 14 1021.1 1021.1 0.0
24/04:00pm 17.9 15.0 9.7 58 4.3 ESE 15 24 8 13 1021.3 1021.3 0.0
24/03:30pm 18.1 14.4 9.3 56 4.6 SE 19 26 10 14 1021.8 1021.8 0.0
24/03:00pm 18.2 14.1 10.1 59 4.3 SE 22 28 12 15 1022.5 1022.5 0.0
24/02:30pm 18.3 14.6 9.5 56 4.6 SE 19 28 10 15 1022.9 1022.9 0.0
24/02:00pm 17.9 14.1 9.0 56 4.6 SE 19 26 10 14 1023.1 1023.1 0.0
24/01:30pm 18.7 16.5 6.1 43 6.2 ENE 7 19 4 10 1023.5 1023.5 0.0
24/01:00pm 18.1 16.0 8.3 52 5.0 NNE 9 15 5 8 1023.7 1023.7 0.0
24/12:30pm 17.1 14.7 8.5 57 4.4 WNW 11 17 6 9 1024.0 1024.0 0.0
24/12:00pm 17.0 15.2 9.3 60 4.0 NNW 9 17 5 9 1024.6 1024.6 0.0
24/11:30am 16.2 14.1 9.6 65 3.4 NW 11 15 6 8 1025.1 1025.1 0.0
24/11:00am 14.8 12.6 9.5 70 2.7 WNW 11 15 6 8 1025.3 1025.3 0.0
24/10:30am 13.7 11.2 9.8 77 2.0 NW 13 15 7 8 1025.5 1025.5 0.0
24/10:00am 12.3 9.7 9.5 83 1.4 NW 13 15 7 8 1025.7 1025.7 0.0
24/09:30am 11.3 8.2 8.7 84 1.3 WNW 15 19 8 10 1025.7 1025.7 0.0
24/09:00am 10.3 6.9 9.1 92 0.6 WNW 17 20 9 11 1025.7 1025.7 0.0
24/08:30am 9.4 6.2 8.6 95 0.4 WNW 15 19 8 10 1025.5 1025.5 0.0
24/08:00am 8.9 5.6 8.1 95 0.4 NW 15 17 8 9 1025.1 1025.1 0.0
24/07:30am 8.5 5.5 7.9 96 0.3 NW 13 15 7 8 1025.0 1025.0 0.0
24/07:00am 8.6 6.4 7.8 95 0.4 NW 9 13 5 7 1025.0 1025.0 0.0
24/06:44am 8.3 6.0 7.4 94 0.4 WNW 9 9 5 5 1024.7 1024.7 0.0
24/06:30am 8.7 6.1 7.9 95 0.4 NW 11 13 6 7 1024.7 1024.7 0.0
24/06:00am 9.0 6.1 8.2 95 0.4 NW 13 15 7 8 1024.7 1024.7 0.0
24/05:30am 9.1 6.2 8.3 95 0.4 NW 13 15 7 8 1024.7 1024.7 0.0
24/05:00am 9.4 6.6 8.6 95 0.4 NW 13 13 7 7 1024.7 1024.7 0.0
24/04:30am 9.6 9.0 8.8 95 0.4 NW 2 7 1 4 1024.8 1024.8 0.0
24/04:00am 9.9 7.6 9.1 95 0.4 NW 11 15 6 8 1024.8 1024.8 0.0
24/03:30am 9.9 7.6 9.1 95 0.4 NW 11 13 6 7 1024.6 1024.6 0.0
24/03:00am 10.1 7.1 9.3 95 0.4 NW 15 17 8 9 1024.9 1024.9 0.0
24/02:30am 10.5 8.3 9.5 93 0.5 WNW 11 15 6 8 1024.6 1024.6 0.0
24/02:00am 10.8 10.4 9.6 92 0.6 N 2 7 1 4 1024.6 1024.6 0.0
24/01:30am 11.1 9.9 9.7 91 0.7 NNW 6 6 3 3 1024.6 1024.6 0.0
24/01:00am 10.7 9.3 8.9 89 0.9 NW 6 9 3 5 1025.3 1025.3 0.0
24/12:30am 11.8 10.4 9.6 86 1.1 NNE 7 9 4 5 1025.4 1025.4 0.0
24/12:00am 12.0 10.6 9.6 85 1.2 ENE 7 9 4 5 1025.5 1025.5 0.0
 
Date/Time
EDT
Temp
°C
App
Temp
°C
Dew
Point
°C
Rel
Hum
%
Delta-T
°C
Wind Press
QNH
hPa
Press
MSL
hPa
Rain since
9am
mm
Dir  Spd
km/h
Gust
km/h
Spd
kts
Gust
kts
23/11:30pm 12.6 10.8 9.6 82 1.5 ESE 9 11 5 6 1026.1 1026.1 0.0
23/11:00pm 13.7 12.0 9.8 77 2.0 S 9 9 5 5 1026.8 1026.8 0.0
23/10:30pm 13.7 12.3 9.6 76 2.1 E 7 9 4 5 1026.5 1026.5 0.0

Other Formats:

Comma delimited format used in spreadsheet applications
http://www.bom.gov.au/fwo/IDT60801/IDT60801.94975.axf

JavaScript Object Notation format (JSON) in row-major order
http://www.bom.gov.au/fwo/IDT60801/IDT60801.94975.json